createdAt,value
2023-04-23T00:02:28.729Z,99991.76
2023-04-23T00:05:09.087Z,99988.96
2023-04-23T00:08:27.977Z,99983.03
2023-04-23T00:11:06.362Z,99980.55
2023-04-23T00:13:51.969Z,99977.54
2023-04-23T00:16:27.330Z,99973.13
2023-04-23T00:19:09.309Z,99972.21
2023-04-23T00:21:49.971Z,99970.64
2023-04-23T00:24:26.222Z,99973.80
2023-04-23T00:27:08.735Z,99972.77
2023-04-23T00:29:46.492Z,99968.88
2023-04-23T00:32:18.705Z,99966.04
2023-04-23T00:34:58.426Z,99962.74
2023-04-23T00:37:33.318Z,99963.70
2023-04-23T00:40:23.710Z,99958.31
2023-04-23T00:43:00.199Z,99956.05
2023-04-23T00:45:30.088Z,99952.80
2023-04-23T00:48:14.885Z,99949.83
2023-04-23T00:50:51.666Z,99947.88
2023-04-23T00:53:36.267Z,99942.52
2023-04-23T00:56:13.255Z,99942.33
2023-04-23T00:58:43.402Z,99946.25
2023-04-23T01:01:20.676Z,99945.96
2023-04-23T01:03:52.903Z,99946.58
2023-04-23T01:06:25.182Z,99948.81
2023-04-23T01:08:59.191Z,99944.73
2023-04-23T01:11:43.255Z,99941.76
2023-04-23T01:14:13.681Z,99942.59
2023-04-23T01:16:53.820Z,99940.95
2023-04-23T01:19:33.860Z,99940.12
2023-04-23T01:22:16.031Z,99939.77
2023-04-23T01:25:07.064Z,99942.27
2023-04-23T01:27:41.397Z,99937.28
2023-04-23T01:30:15.269Z,99936.66
2023-04-23T01:32:51.217Z,99933.14
2023-04-23T01:35:31.767Z,99933.52
2023-04-23T01:38:15.138Z,99934.58
2023-04-23T01:40:48.747Z,99935.02
2023-04-23T01:43:39.216Z,99932.38
2023-04-23T01:46:15.357Z,99934.13
2023-04-23T01:48:50.091Z,99931.81
2023-04-23T01:51:25.117Z,99932.77
2023-04-23T01:53:56.450Z,99930.62
2023-04-23T01:56:30.913Z,99930.13
2023-04-23T01:59:09.382Z,99933.45
2023-04-23T02:01:46.861Z,99933.81
2023-04-23T02:04:22.822Z,99935.73
2023-04-23T02:07:11.211Z,99936.43
2023-04-23T02:09:46.412Z,99933.40
2023-04-23T02:12:31.802Z,99928.13
2023-04-23T02:15:12.519Z,99923.02
2023-04-23T02:17:52.659Z,99922.39
2023-04-23T02:20:39.968Z,99921.70
2023-04-23T02:23:31.364Z,99916.94
2023-04-23T02:26:11.029Z,99912.09
2023-04-23T02:28:59.332Z,99907.11
2023-04-23T02:31:47.961Z,99909.47
2023-04-23T02:34:22.893Z,99906.75
2023-04-23T02:37:08.981Z,99905.53
2023-04-23T02:39:43.176Z,99905.39
2023-04-23T02:42:15.216Z,99906.08
2023-04-23T02:44:56.480Z,99907.61
2023-04-23T02:47:34.878Z,99909.02
2023-04-23T02:50:10.064Z,99907.73
2023-04-23T02:52:42.434Z,99905.35
2023-04-23T02:55:18.722Z,99904.88
2023-04-23T02:57:59.750Z,99905.22
2023-04-23T03:00:36.357Z,99902.55
2023-04-23T03:03:12.357Z,99903.87
2023-04-23T03:05:48.273Z,99903.63
2023-04-23T03:08:18.088Z,99903.86
2023-04-23T03:10:55.593Z,99905.48
2023-04-23T03:13:28.564Z,99905.33
2023-04-23T03:16:06.777Z,99904.35
2023-04-23T03:18:37.197Z,99904.11
2023-04-23T03:21:10.417Z,99901.03
2023-04-23T03:23:45.823Z,99902.60
2023-04-23T03:26:23.088Z,99897.46
2023-04-23T03:28:57.681Z,99896.26
2023-04-23T03:31:32.932Z,99898.32
2023-04-23T03:34:05.466Z,99892.90
2023-04-23T03:36:36.532Z,99893.65
2023-04-23T03:39:08.830Z,99896.29
2023-04-23T03:41:57.318Z,99896.91
2023-04-23T03:44:44.298Z,99896.40
2023-04-23T03:47:18.724Z,99899.13
2023-04-23T03:49:53.865Z,99901.90
2023-04-23T03:52:33.015Z,99894.89
2023-04-23T03:55:06.699Z,99893.16
2023-04-23T03:57:45.061Z,99893.79
2023-04-23T04:00:42.447Z,99893.14
2023-04-23T04:03:12.802Z,99891.33
2023-04-23T04:05:48.953Z,99892.45
2023-04-23T04:08:21.250Z,99894.77
2023-04-23T04:10:56.181Z,99892.61
2023-04-23T04:13:28.499Z,99896.29
2023-04-23T04:16:05.192Z,99896.75
2023-04-23T04:18:40.230Z,99895.30
2023-04-23T04:21:12.622Z,99896.73
2023-04-23T04:23:49.110Z,99896.69
2023-04-23T04:26:25.163Z,99895.98
2023-04-23T04:29:01.192Z,99894.70
2023-04-23T04:31:33.550Z,99892.69
2023-04-23T04:34:09.138Z,99891.73
2023-04-23T04:37:06.594Z,99889.13
2023-04-23T04:39:40.039Z,99889.23
2023-04-23T04:42:25.247Z,99885.83
2023-04-23T04:45:20.994Z,99883.81
2023-04-23T04:48:00.689Z,99881.85
2023-04-23T04:50:34.368Z,99887.79
2023-04-23T04:53:13.692Z,99892.78
2023-04-23T04:55:53.079Z,99896.08
2023-04-23T04:58:36.448Z,99899.23
2023-04-23T05:01:08.424Z,99898.88
2023-04-23T05:03:48.408Z,99899.58
2023-04-23T05:06:34.483Z,99902.02
2023-04-23T05:09:17.234Z,99901.94
2023-04-23T05:12:18.258Z,99899.52
2023-04-23T05:15:09.471Z,99897.86
2023-04-23T05:17:51.631Z,99896.30
2023-04-23T05:20:32.842Z,99894.22
2023-04-23T05:23:13.633Z,99896.34
2023-04-23T05:26:12.947Z,99897.51
2023-04-23T05:29:01.645Z,99892.95
2023-04-23T05:31:40.655Z,99895.30
2023-04-23T05:34:14.366Z,99890.10
2023-04-23T05:36:46.402Z,99891.35
2023-04-23T05:39:22.951Z,99889.48
2023-04-23T05:42:03.078Z,99890.11
2023-04-23T05:44:39.695Z,99887.27
2023-04-23T05:47:31.709Z,99889.60
2023-04-23T05:50:08.581Z,99890.13
2023-04-23T05:52:40.884Z,99886.81
2023-04-23T05:55:12.283Z,99886.84
2023-04-23T05:57:49.537Z,99887.21
2023-04-23T06:00:30.662Z,99887.86
2023-04-23T06:03:02.932Z,99886.11
2023-04-23T06:05:45.363Z,99883.26
2023-04-23T06:08:25.811Z,99883.14
2023-04-23T06:11:04.899Z,99882.05
2023-04-23T06:13:36.794Z,99881.03
2023-04-23T06:16:18.962Z,99877.40
2023-04-23T06:18:54.217Z,99876.54
2023-04-23T06:21:36.778Z,99877.28
2023-04-23T06:24:22.651Z,99878.02
2023-04-23T06:26:57.865Z,99878.86
2023-04-23T06:29:36.272Z,99876.33
2023-04-23T06:32:09.375Z,99879.75
2023-04-23T06:35:00.294Z,99878.81
2023-04-23T06:37:35.057Z,99875.27
2023-04-23T06:40:10.798Z,99873.46
2023-04-23T06:42:44.166Z,99870.77
2023-04-23T06:45:42.685Z,99868.15
2023-04-23T06:48:18.827Z,99864.18
2023-04-23T06:50:51.337Z,99860.89
2023-04-23T06:53:41.206Z,99858.34
2023-04-23T06:56:16.305Z,99851.63
2023-04-23T06:58:49.895Z,99850.30
2023-04-23T07:01:24.448Z,99849.08
2023-04-23T07:03:56.702Z,99844.84
2023-04-23T07:06:29.038Z,99844.76
2023-04-23T07:09:09.445Z,99844.59
2023-04-23T07:12:17.867Z,99842.39
2023-04-23T07:14:49.288Z,99841.85
2023-04-23T07:18:22.226Z,99842.19
2023-04-23T07:22:31.901Z,99836.64
2023-04-23T07:25:28.384Z,99837.27
2023-04-23T07:27:58.824Z,99833.27
2023-04-23T07:30:29.563Z,99826.70
2023-04-23T07:33:12.499Z,99829.02
2023-04-23T07:35:55.374Z,99827.48
2023-04-23T07:38:31.607Z,99826.81
2023-04-23T07:41:13.464Z,99821.01
2023-04-23T07:43:57.021Z,99817.79
2023-04-23T07:47:02.633Z,99817.37
2023-04-23T07:49:38.674Z,99817.30
2023-04-23T07:52:21.844Z,99817.12
2023-04-23T07:54:56.477Z,99816.30
2023-04-23T07:57:33.055Z,99812.16
2023-04-23T08:00:24.707Z,99807.63
2023-04-23T08:03:31.058Z,99805.22
2023-04-23T08:06:27.785Z,99801.94
2023-04-23T08:09:57.843Z,99798.25
2023-04-23T08:12:49.496Z,99795.15
2023-04-23T08:15:24.052Z,99792.39
2023-04-23T08:17:55.750Z,99787.00
2023-04-23T08:20:30.171Z,99789.55
2023-04-23T08:23:00.807Z,99786.15
2023-04-23T08:25:35.205Z,99789.83
2023-04-23T08:28:06.496Z,99788.98
2023-04-23T08:30:37.186Z,99784.96
2023-04-23T08:33:21.846Z,99783.17
2023-04-23T08:35:52.488Z,99779.30
2023-04-23T08:38:23.117Z,99779.84
2023-04-23T08:40:58.864Z,99780.02
2023-04-23T08:44:01.686Z,99775.33
2023-04-23T08:46:45.986Z,99768.90
2023-04-23T08:49:19.342Z,99769.59
2023-04-23T08:52:11.580Z,99769.40
2023-04-23T08:54:57.281Z,99761.80
2023-04-23T08:57:40.945Z,99760.95
2023-04-23T09:04:51.327Z,99751.98
2023-04-23T09:07:36.505Z,99745.29
2023-04-23T09:10:23.766Z,99741.39
2023-04-23T09:13:30.963Z,99742.67
2023-04-23T09:16:07.578Z,99736.81
2023-04-23T09:19:00.575Z,99737.48
2023-04-23T09:21:40.520Z,99735.12
2023-04-23T09:24:46.029Z,99735.34
2023-04-23T09:27:53.989Z,99733.13
2023-04-23T09:30:42.840Z,99736.43
2023-04-23T09:38:32.646Z,99732.52
2023-04-23T09:45:09.504Z,99726.05
2023-04-23T09:48:17.179Z,99720.98
2023-04-23T09:51:27.751Z,99717.29
2023-04-23T09:54:47.198Z,99716.81
2023-04-23T09:57:56.363Z,99716.27
2023-04-23T10:00:26.520Z,99710.67
2023-04-23T10:14:15.021Z,99691.95
2023-04-23T10:17:04.293Z,99689.17
2023-04-23T10:24:29.584Z,99684.89
2023-04-23T10:32:36.245Z,99674.98
2023-04-23T10:43:23.597Z,99665.59
2023-04-23T11:24:17.845Z,99659.61
2023-04-23T11:26:58.872Z,99651.30
2023-04-23T11:29:41.570Z,99649.73
2023-04-23T11:32:45.791Z,99648.85
2023-04-23T11:39:56.083Z,99644.87
2023-04-23T12:25:05.348Z,99618.45
2023-04-23T12:28:23.231Z,99618.35
2023-04-23T12:31:16.921Z,99616.35
2023-04-23T12:34:22.458Z,99610.40
2023-04-23T12:37:09.465Z,99611.53
2023-04-23T12:39:49.724Z,99613.85
2023-04-23T12:43:08.710Z,99601.95
2023-04-23T12:45:50.750Z,99603.12
2023-04-23T12:48:28.792Z,99603.27
2023-04-23T12:51:01.784Z,99604.65
2023-04-23T12:53:39.417Z,99605.71
2023-04-23T12:56:21.692Z,99602.73
2023-04-23T12:59:10.123Z,99598.04
2023-04-23T13:02:11.113Z,99594.59
2023-04-23T13:05:05.988Z,99599.91
2023-04-23T13:07:55.195Z,99595.55
2023-04-23T13:10:37.353Z,99594.70
2023-04-23T13:14:11.357Z,99593.89
2023-04-23T13:18:12.661Z,99586.55
2023-04-23T13:21:04.567Z,99591.16
2023-04-23T13:23:51.681Z,99593.24
2023-04-23T13:26:24.884Z,99593.70
2023-04-23T13:29:27.712Z,99593.35
2023-04-23T13:32:52.067Z,99590.85
2023-04-23T13:58:44.715Z,99580.77
2023-04-23T14:02:02.427Z,99583.59
2023-04-23T14:04:47.666Z,99596.59
2023-04-23T14:11:01.841Z,99603.05
2023-04-23T14:14:41.186Z,99605.89
2023-04-23T14:21:49.101Z,99614.01
2023-04-23T14:25:49.302Z,99622.84
2023-04-23T14:29:23.548Z,99628.02
2023-04-23T14:32:50.733Z,99640.52
2023-04-23T14:35:50.850Z,99638.06
2023-04-23T14:38:46.231Z,99645.42
2023-04-23T14:41:42.727Z,99653.08
2023-04-23T14:44:33.950Z,99657.58
2023-04-23T14:47:39.158Z,99653.52
2023-04-23T14:50:14.832Z,99640.80
2023-04-23T14:53:02.049Z,99637.21
2023-04-23T14:55:45.838Z,99637.20
2023-04-23T14:58:23.987Z,99633.27
2023-04-23T15:01:33.729Z,99628.99
2023-04-23T15:04:22.087Z,99626.02
2023-04-23T15:07:02.399Z,99625.64
2023-04-23T15:09:42.994Z,99623.37
2023-04-23T15:12:44.710Z,99617.36
2023-04-23T15:15:44.349Z,99610.48
2023-04-23T15:18:25.517Z,99611.96
2023-04-23T15:21:00.875Z,99609.65
2023-04-23T15:23:43.549Z,99610.14
2023-04-23T15:26:26.138Z,99607.89
2023-04-23T15:29:11.594Z,99600.28
2023-04-23T15:31:49.228Z,99599.39
2023-04-23T15:34:23.960Z,99599.78
2023-04-23T15:36:56.870Z,99597.92
2023-04-23T15:39:38.742Z,99598.58
2023-04-23T15:42:20.400Z,99602.85
2023-04-23T15:45:00.739Z,99601.29
2023-04-23T15:47:38.660Z,99602.15
2023-04-23T15:50:16.601Z,99597.52
2023-04-23T15:52:55.403Z,99595.99
2023-04-23T15:55:38.632Z,99593.17
2023-04-23T15:58:24.455Z,99592.15
2023-04-23T16:01:05.151Z,99591.98
2023-04-23T16:03:57.647Z,99588.80
2023-04-23T16:09:57.706Z,99583.04
2023-04-23T16:12:35.948Z,99580.14
2023-04-23T16:15:13.928Z,99585.91
2023-04-23T16:18:25.876Z,99585.40
2023-04-23T16:21:21.807Z,99584.08
2023-04-23T16:24:16.245Z,99582.77
2023-04-23T16:27:11.526Z,99576.68
2023-04-23T16:30:13.133Z,99581.45
2023-04-23T16:32:48.181Z,99584.36
2023-04-23T16:35:28.868Z,99589.90
2023-04-23T16:38:12.866Z,99591.85
2023-04-23T16:41:05.301Z,99600.28
2023-04-23T16:43:41.570Z,99602.00
2023-04-23T16:46:25.478Z,99599.77
2023-04-23T16:49:05.522Z,99598.33
2023-04-23T16:51:43.807Z,99598.41
2023-04-23T16:54:23.800Z,99592.46
2023-04-23T16:57:14.069Z,99595.53
2023-04-23T17:00:23.881Z,99596.10
2023-04-23T17:02:58.655Z,99595.06
2023-04-23T17:05:37.053Z,99595.67
2023-04-23T17:08:10.347Z,99594.77
2023-04-23T17:10:57.035Z,99593.80
2023-04-23T17:14:18.550Z,99596.70
2023-04-23T17:17:17.327Z,99596.84
2023-04-23T17:20:19.604Z,99592.71
2023-04-23T17:23:13.848Z,99593.94
2023-04-23T17:26:14.335Z,99592.09
2023-04-23T17:29:00.182Z,99594.38
2023-04-23T17:32:02.968Z,99599.83
2023-04-23T17:35:12.204Z,99601.37
2023-04-23T17:38:00.283Z,99604.98
2023-04-23T17:40:39.586Z,99608.39
2023-04-23T17:43:14.446Z,99606.73
2023-04-23T17:46:01.039Z,99604.37
2023-04-23T17:48:55.315Z,99601.69
2023-04-23T17:51:42.897Z,99606.11
2023-04-23T17:54:27.310Z,99608.75
2023-04-23T17:57:11.613Z,99608.96
2023-04-23T17:59:53.198Z,99613.20
2023-04-23T18:02:28.997Z,99610.83
2023-04-23T18:05:09.683Z,99610.52
2023-04-23T18:07:45.437Z,99612.48
2023-04-23T18:10:31.224Z,99614.20
2023-04-23T18:13:15.408Z,99616.73
2023-04-23T18:16:08.932Z,99619.68
2023-04-23T18:18:50.161Z,99620.20
2023-04-23T18:21:23.344Z,99622.16
2023-04-23T18:23:58.457Z,99624.72
2023-04-23T18:26:37.613Z,99626.58
2023-04-23T18:29:11.622Z,99632.29
2023-04-23T18:31:43.657Z,99630.98
2023-04-23T18:34:27.828Z,99635.50
2023-04-23T18:37:08.304Z,99637.70
2023-04-23T18:39:41.555Z,99636.85
2023-04-23T18:42:23.965Z,99634.95
2023-04-23T18:48:38.722Z,99636.48
2023-04-23T18:51:17.901Z,99638.98
2023-04-23T18:53:52.545Z,99640.25
2023-04-23T18:56:42.879Z,99635.60
2023-04-23T18:59:24.392Z,99638.08
2023-04-23T19:02:34.331Z,99636.48
2023-04-23T19:05:17.118Z,99636.73
2023-04-23T19:08:29.138Z,99637.65
2023-04-23T19:11:06.943Z,99629.80
2023-04-23T19:13:56.126Z,99623.46
2023-04-23T19:16:43.740Z,99621.00
2023-04-23T19:19:58.547Z,99621.42
2023-04-23T19:22:59.449Z,99622.35
2023-04-23T19:25:49.053Z,99621.08
2023-04-23T19:28:35.889Z,99617.08
2023-04-23T19:31:28.430Z,99611.62
2023-04-23T19:34:27.913Z,99605.43
2023-04-23T19:37:14.001Z,99601.11
2023-04-23T19:39:57.353Z,99592.84
2023-04-23T19:42:55.581Z,99597.11
2023-04-23T19:45:49.213Z,99605.86
2023-04-23T19:48:40.244Z,99602.48
2023-04-23T19:51:51.991Z,99594.06
2023-04-23T19:54:24.786Z,99596.96
2023-04-23T19:56:58.274Z,99590.67
2023-04-23T19:59:32.869Z,99593.37
2023-04-23T20:02:02.896Z,99590.05
2023-04-23T20:04:33.856Z,99587.61
2023-04-23T20:07:22.371Z,99584.22
2023-04-23T20:10:26.330Z,99585.43
2023-04-23T20:13:31.099Z,99576.77
2023-04-23T20:17:03.226Z,99572.64
2023-04-23T20:19:38.483Z,99566.10
2023-04-23T20:22:17.137Z,99563.80
2023-04-23T20:25:01.255Z,99562.27
2023-04-23T20:27:33.635Z,99565.06
2023-04-23T20:33:13.050Z,99564.02
2023-04-23T20:35:54.659Z,99558.86
2023-04-23T20:38:33.991Z,99566.90
2023-04-23T20:41:06.842Z,99572.51
2023-04-23T20:43:42.434Z,99570.31
2023-04-23T20:46:17.148Z,99572.69
2023-04-23T20:48:55.852Z,99573.23
2023-04-23T20:51:29.015Z,99569.92
2023-04-23T20:54:03.258Z,99566.80
2023-04-23T20:56:41.213Z,99558.14
2023-04-23T20:59:13.270Z,99562.17
2023-04-23T21:01:55.530Z,99559.13
2023-04-23T21:04:29.573Z,99560.33
2023-04-23T21:07:21.995Z,99563.39
2023-04-23T21:10:06.618Z,99562.22
2023-04-23T21:13:01.981Z,99561.11
2023-04-23T21:15:54.541Z,99557.14
2023-04-23T21:18:28.053Z,99559.70
2023-04-23T21:21:09.091Z,99554.24
2023-04-23T21:23:45.147Z,99555.65
2023-04-23T21:26:21.998Z,99551.11
2023-04-23T21:28:55.044Z,99549.92
2023-04-23T21:31:50.484Z,99549.75
2023-04-23T21:34:23.709Z,99552.36
2023-04-23T21:36:54.271Z,99549.25
2023-04-23T21:39:43.011Z,99545.29
2023-04-23T21:42:22.382Z,99542.66
2023-04-23T21:45:09.009Z,99545.23
2023-04-23T21:47:44.990Z,99545.69
2023-04-23T21:50:20.621Z,99546.39
2023-04-23T21:52:53.857Z,99547.16
2023-04-23T21:55:32.120Z,99547.27
2023-04-23T21:58:17.152Z,99544.93
2023-04-23T22:00:49.153Z,99537.70
2023-04-23T22:03:37.402Z,99534.84
2023-04-23T22:06:16.672Z,99533.69
2023-04-23T22:08:53.719Z,99535.76
2023-04-23T22:11:48.876Z,99534.70
2023-04-23T22:14:32.521Z,99530.50
2023-04-23T22:17:15.617Z,99528.58
2023-04-23T22:19:46.180Z,99525.73
2023-04-23T22:22:17.274Z,99524.34
2023-04-23T22:24:58.553Z,99526.36
2023-04-23T22:27:37.068Z,99528.95
2023-04-23T22:30:15.863Z,99526.73
2023-04-23T22:32:50.117Z,99525.66
2023-04-23T22:35:49.726Z,99529.67
2023-04-23T22:38:26.536Z,99526.28
2023-04-23T22:41:00.202Z,99522.77
2023-04-23T22:43:35.989Z,99521.45
2023-04-23T22:46:12.655Z,99518.52
2023-04-23T22:48:49.826Z,99513.65
2023-04-23T22:51:22.183Z,99506.72
2023-04-23T22:53:54.531Z,99508.52
2023-04-23T22:56:30.677Z,99505.14
2023-04-23T22:59:13.691Z,99505.87
2023-04-23T23:02:02.526Z,99504.17
2023-04-23T23:04:41.829Z,99499.59
2023-04-23T23:07:16.608Z,99496.59
2023-04-23T23:09:53.653Z,99495.73
2023-04-23T23:12:24.556Z,99493.36
2023-04-23T23:15:00.168Z,99487.29
2023-04-23T23:17:40.991Z,99490.80
2023-04-23T23:20:17.504Z,99485.50
2023-04-23T23:22:50.555Z,99482.81
2023-04-23T23:25:26.082Z,99482.04
2023-04-23T23:28:08.102Z,99476.73
2023-04-23T23:30:43.730Z,99473.52
2023-04-23T23:33:17.507Z,99473.42
2023-04-23T23:35:51.940Z,99469.52
2023-04-23T23:38:24.062Z,99465.65
2023-04-23T23:41:05.074Z,99465.11
2023-04-23T23:43:51.779Z,99463.34
2023-04-23T23:46:24.387Z,99464.31
2023-04-23T23:48:55.401Z,99461.83
2023-04-23T23:51:26.196Z,99458.73
2023-04-23T23:53:57.003Z,99457.12
2023-04-23T23:56:29.992Z,99446.92
2023-04-23T23:59:09.766Z,99451.14
